Grand Canyon, AZ

12:58 AM MST on January 22, 2017 (GMT -0700)
MAR412 | | Change Station
Active Advisory: Winter Storm Watch Active Notice: Public Information Statement

Elev 6828 ft 36.05 °N, 112.13 °W | Updated 45 minutes ago

Clear
Clear
19.0 °F
Feels Like 19 °F
N
0.0
Wind Variable Wind from West
Gusts 0.0 mph

Today
High -- | Low -- °F
--% Chance of Precip.
Yesterday
High -- | Low -- °F
Precip. -- in
Pressure 30.17 in
Visibility 10.0 miles
Clouds Clear
Windchill 19 °F
Dew Point 16 °F
Humidity 86%
Rainfall 0.00 in
Snow Depth Not available.
7:35 AM 5:45 PM
Waning Crescent, 28% visible
METAR KGCN 220754Z 00000KT 10SM CLR M16/M17 A3004 RMK AO2 SLP215 I1000 T11561167 $
Pressure 30.17 in
Visibility 10.0 miles
Clouds Clear
Windchill 19 °F
Dew Point 16 °F
Humidity 86%
Rainfall 0.00 in
Snow Depth Not available.
7:35 AM 5:45 PM
Waning Crescent, 28% visible
METAR KGCN 220754Z 00000KT 10SM CLR M16/M17 A3004 RMK AO2 SLP215 I1000 T11561167 $

Get Your Daily Forecast Email!

Thanks for signing up!

Be on the lookout for a verification email in your inbox.

You'll start receiving the daily forecast at 8 AM.

×

10-Day Weather Forecast

Almanac

Astronomy

Jan. 22, 2017 Rise Set
Actual Time
Civil Twilight
Nautical Twilight
Astronomical Twilight
Moon
Length of Visible Light
Length of Day
Tomorrow will be .
, % of the Moon is Illuminated

Today's Extremes

State Highs State Lows

Community

WunderPhotos

Upload Photos

1,962,540 photos uploaded!

WunderBlog® & News

Nearby

Air Quality

  Air Quality AQ Index Pollutant
Not available.

Snow Depth

Station Depth Elevation

Earthquake Activity

City Distance Mag. Time & Date
Minimum magnitude displayed is 2.5.

Coastal Water Temperatures

Place Temperature

Stations

Nearby Weather Stations

Station Location Temp. Windchill Dew Point Humidity Wind Precip. Elev Updated Type
                   

Watches & Warnings

Winter Storm Watch
Issued: 6:06 PM MST Jan. 21, 2017 – National Weather Service

... Winter Storm Watch remains in effect from Sunday evening
through late Monday night above 6000 feet...

* timing... snow will spread from west to east Sunday afternoon
and evening... continuing through late Monday night.

* General event total snow accumulations... 6 to 12 inches for
areas above 6000 feet elevation. Higher amounts possible along
southwest facing slopes of the Mogollon Rim and the Kaibab
Plateau. Consult point specific forecast at:
weather.Gov/Flagstaff.

* Other impacts... dangerous travel conditions are possible due
to snow packed and slick roads. Visibility could also be
severely reduced due to blowing and drifting snow.

Precautionary/preparedness actions...

A Winter Storm Watch means there is a potential for significant
snow and or ice accumulations and strong winds. These conditions
may impact travel. Continue to monitor the latest forecasts.
Additional weather information is on the web at
www.Weather.Gov/Flagstaff